createdAt,value
2023-09-17T00:02:33.381Z,10.90
2023-09-17T00:05:37.012Z,12.23
2023-09-17T00:08:39.851Z,14.57
2023-09-17T00:11:43.072Z,9.77
2023-09-17T00:14:46.604Z,13.65
2023-09-17T00:17:50.784Z,10.73
2023-09-17T00:20:53.634Z,10.00
2023-09-17T00:23:56.566Z,9.18
2023-09-17T00:26:59.726Z,13.77
2023-09-17T00:30:02.693Z,10.18
2023-09-17T00:33:05.765Z,9.82
2023-09-17T00:36:08.919Z,13.50
2023-09-17T00:39:11.585Z,10.85
2023-09-17T00:42:14.835Z,9.25
2023-09-17T00:45:17.825Z,9.80
2023-09-17T00:48:21.235Z,8.85
2023-09-17T00:51:24.313Z,11.80
2023-09-17T00:54:30.217Z,10.45
2023-09-17T00:57:33.091Z,14.95
2023-09-17T01:00:39.674Z,11.60
2023-09-17T01:03:42.640Z,12.23
2023-09-17T01:06:48.067Z,11.38
2023-09-17T01:09:53.443Z,9.15
2023-09-17T01:12:58.098Z,11.18
2023-09-17T01:16:00.798Z,10.68
2023-09-17T01:19:05.229Z,10.63
2023-09-17T01:22:14.121Z,11.55
2023-09-17T01:25:20.182Z,11.33
2023-09-17T01:28:23.562Z,12.00
2023-09-17T01:31:28.446Z,10.40
2023-09-17T01:34:33.774Z,12.75
2023-09-17T01:37:40.778Z,11.38
2023-09-17T01:40:44.962Z,15.15
2023-09-17T01:43:49.107Z,11.27
2023-09-17T01:46:53.052Z,9.98
2023-09-17T01:49:59.715Z,11.15
2023-09-17T01:53:02.678Z,12.27
2023-09-17T01:56:05.924Z,13.23
2023-09-17T01:59:08.744Z,13.02
2023-09-17T02:02:12.105Z,12.20
2023-09-17T02:05:17.691Z,12.10
2023-09-17T02:08:20.549Z,9.73
2023-09-17T02:11:24.670Z,10.18
2023-09-17T02:14:27.534Z,10.55
2023-09-17T02:17:30.950Z,10.00
2023-09-17T02:20:38.565Z,12.23
2023-09-17T02:23:41.536Z,12.68
2023-09-17T02:26:45.610Z,12.90
2023-09-17T02:29:48.378Z,10.35
2023-09-17T02:32:51.560Z,12.18
2023-09-17T02:35:54.916Z,11.75
2023-09-17T02:38:58.218Z,10.75
2023-09-17T02:42:01.125Z,11.70
2023-09-17T02:45:06.202Z,8.73
2023-09-17T02:48:09.141Z,12.90
2023-09-17T02:51:12.120Z,10.25
2023-09-17T02:54:15.716Z,11.30
2023-09-17T02:57:18.948Z,11.70
2023-09-17T03:00:22.893Z,14.70
2023-09-17T03:03:26.158Z,11.20
2023-09-17T03:06:29.110Z,11.27
2023-09-17T03:09:32.118Z,11.18
2023-09-17T03:12:34.843Z,11.73
2023-09-17T03:15:38.598Z,9.75
2023-09-17T03:18:46.097Z,11.82
2023-09-17T03:21:49.232Z,11.68
2023-09-17T03:25:03.758Z,10.15
2023-09-17T03:28:08.077Z,12.60
2023-09-17T03:31:11.075Z,10.68
2023-09-17T03:34:14.516Z,10.57
2023-09-17T03:37:17.179Z,9.63
2023-09-17T03:40:20.891Z,11.50
2023-09-17T03:43:25.356Z,11.18
2023-09-17T03:46:28.450Z,9.90
2023-09-17T03:49:32.689Z,11.30
2023-09-17T03:52:38.927Z,11.35
2023-09-17T03:55:42.063Z,13.07
2023-09-17T03:58:49.659Z,11.27
2023-09-17T04:01:53.616Z,8.90
2023-09-17T04:04:56.686Z,10.38
2023-09-17T04:07:59.300Z,9.63
2023-09-17T04:11:02.397Z,11.52
2023-09-17T04:14:06.537Z,12.93
2023-09-17T04:17:11.222Z,11.23
2023-09-17T04:20:19.752Z,10.07
2023-09-17T04:23:26.160Z,12.37
2023-09-17T04:26:30.743Z,9.35
2023-09-17T04:29:33.870Z,10.23
2023-09-17T04:32:39.258Z,11.00
2023-09-17T04:35:42.550Z,10.23
2023-09-17T04:38:45.668Z,10.63
2023-09-17T04:41:51.408Z,10.60
2023-09-17T04:44:54.803Z,13.25
2023-09-17T04:47:57.857Z,10.00
2023-09-17T04:51:01.662Z,8.95
2023-09-17T04:54:10.002Z,10.23
2023-09-17T04:57:12.742Z,9.60
2023-09-17T05:00:16.032Z,9.82
2023-09-17T05:03:20.480Z,9.90
2023-09-17T05:06:24.500Z,11.70
2023-09-17T05:09:27.786Z,13.18
2023-09-17T05:12:30.929Z,10.32
2023-09-17T05:15:33.988Z,11.40
2023-09-17T05:18:36.897Z,9.13
2023-09-17T05:21:39.760Z,11.50
2023-09-17T05:24:42.957Z,10.20
2023-09-17T05:27:47.297Z,9.35
2023-09-17T05:30:56.869Z,13.32
2023-09-17T05:33:59.788Z,9.27
2023-09-17T05:37:03.105Z,11.23
2023-09-17T05:40:06.701Z,11.55
2023-09-17T05:43:10.172Z,10.57
2023-09-17T05:46:14.173Z,9.70
2023-09-17T05:49:17.920Z,13.13
2023-09-17T05:52:22.572Z,9.65
2023-09-17T05:55:25.864Z,9.23
2023-09-17T05:58:29.036Z,10.48
2023-09-17T06:01:32.847Z,8.90
2023-09-17T06:04:36.216Z,9.15
2023-09-17T06:07:39.209Z,10.43
2023-09-17T06:10:42.640Z,9.52
2023-09-17T06:13:45.644Z,8.93
2023-09-17T06:16:57.348Z,10.65
2023-09-17T06:20:02.033Z,9.20
2023-09-17T06:23:05.557Z,13.07
2023-09-17T06:26:10.329Z,9.52
2023-09-17T06:29:13.949Z,7.53
2023-09-17T06:32:17.101Z,7.70
2023-09-17T06:35:20.323Z,6.50
2023-09-17T06:38:23.053Z,9.35
2023-09-17T06:41:26.705Z,8.45
2023-09-17T06:44:31.008Z,15.57
2023-09-17T06:47:34.645Z,7.15
2023-09-17T06:50:37.322Z,6.62
2023-09-17T06:53:40.927Z,6.45
2023-09-17T06:56:43.687Z,6.47
2023-09-17T06:59:48.163Z,6.70
2023-09-17T07:02:51.011Z,7.87
2023-09-17T07:05:54.231Z,5.50
2023-09-17T07:08:58.456Z,12.65
2023-09-17T07:12:01.582Z,8.40
2023-09-17T07:15:07.080Z,5.97
2023-09-17T07:18:11.855Z,6.72
2023-09-17T07:21:14.906Z,6.75
2023-09-17T07:24:18.087Z,7.15
2023-09-17T07:27:20.943Z,6.87
2023-09-17T07:30:24.008Z,7.68
2023-09-17T07:33:26.802Z,5.93
2023-09-17T07:36:30.932Z,11.30
2023-09-17T07:39:33.765Z,5.82
2023-09-17T07:42:37.032Z,5.35
2023-09-17T07:45:39.573Z,7.00
2023-09-17T07:48:42.662Z,7.07
2023-09-17T07:51:45.579Z,8.20
2023-09-17T07:54:48.414Z,11.32
2023-09-17T07:57:52.433Z,6.47
2023-09-17T08:00:55.669Z,11.75
2023-09-17T08:03:59.084Z,7.75
2023-09-17T08:07:02.284Z,8.57
2023-09-17T08:10:05.973Z,8.90
2023-09-17T08:13:10.141Z,11.07
2023-09-17T08:16:13.502Z,7.70
2023-09-17T08:19:16.606Z,8.43
2023-09-17T08:22:19.965Z,10.02
2023-09-17T08:25:22.687Z,6.95
2023-09-17T08:28:25.569Z,7.87
2023-09-17T08:31:29.484Z,8.13
2023-09-17T08:34:33.886Z,9.95
2023-09-17T08:37:37.785Z,10.32
2023-09-17T08:40:41.879Z,6.30
2023-09-17T08:43:47.023Z,7.22
2023-09-17T08:46:53.096Z,6.97
2023-09-17T08:49:55.949Z,7.28
2023-09-17T08:53:03.432Z,7.80
2023-09-17T08:56:07.963Z,11.50
2023-09-17T08:59:14.316Z,8.85
2023-09-17T09:02:25.481Z,7.90
2023-09-17T09:05:29.633Z,7.15
2023-09-17T09:08:32.758Z,8.70
2023-09-17T09:11:36.571Z,8.02
2023-09-17T09:14:41.485Z,9.10
2023-09-17T09:17:44.881Z,12.60
2023-09-17T09:20:48.501Z,10.13
2023-09-17T09:23:51.911Z,11.52
2023-09-17T09:26:56.505Z,15.55
2023-09-17T09:30:06.123Z,12.57
2023-09-17T09:33:09.287Z,9.68
2023-09-17T09:36:13.323Z,9.82
2023-09-17T09:39:17.299Z,12.23
2023-09-17T09:42:22.675Z,14.38
2023-09-17T09:45:25.574Z,11.50
2023-09-17T09:48:29.511Z,9.20
2023-09-17T09:51:33.070Z,14.05
2023-09-17T09:54:38.925Z,10.32
2023-09-17T09:57:43.409Z,10.85
2023-09-17T10:00:46.774Z,11.73
2023-09-17T10:03:52.312Z,16.20
2023-09-17T10:06:57.203Z,13.57
2023-09-17T10:10:01.530Z,14.95
2023-09-17T10:13:07.669Z,10.10
2023-09-17T10:16:12.072Z,12.60
2023-09-17T10:19:20.068Z,12.82
2023-09-17T10:22:24.635Z,11.05
2023-09-17T10:25:30.040Z,14.38
2023-09-17T10:28:35.803Z,11.27
2023-09-17T10:31:40.410Z,10.38
2023-09-17T10:34:43.823Z,12.80
2023-09-17T10:37:48.074Z,12.98
2023-09-17T10:40:51.982Z,11.07
2023-09-17T10:43:57.259Z,15.30
2023-09-17T10:47:02.563Z,9.00
2023-09-17T10:50:05.840Z,10.63
2023-09-17T10:53:08.973Z,9.00
2023-09-17T10:56:15.037Z,11.73
2023-09-17T10:59:19.294Z,10.75
2023-09-17T11:02:27.361Z,14.82
2023-09-17T11:05:33.947Z,8.48
2023-09-17T11:08:36.909Z,8.30
2023-09-17T11:11:41.201Z,8.15
2023-09-17T11:14:47.312Z,11.30
2023-09-17T11:17:51.894Z,8.73
2023-09-17T11:21:08.212Z,8.68
2023-09-17T11:24:12.802Z,8.85
2023-09-17T11:27:19.799Z,7.47
2023-09-17T11:30:25.729Z,9.25
2023-09-17T11:33:28.922Z,9.43
2023-09-17T11:36:33.343Z,9.77
2023-09-17T11:39:37.918Z,7.35
2023-09-17T11:42:42.208Z,8.15
2023-09-17T11:45:46.292Z,8.77
2023-09-17T11:48:49.240Z,10.68
2023-09-17T11:51:53.141Z,8.30
2023-09-17T11:55:13.371Z,7.05
2023-09-17T11:58:22.594Z,7.90
2023-09-17T12:01:27.913Z,12.27
2023-09-17T12:04:32.856Z,7.68
2023-09-17T12:07:45.668Z,7.22
2023-09-17T12:11:08.309Z,7.20
2023-09-17T12:14:11.565Z,7.37
2023-09-17T12:17:17.714Z,6.30
2023-09-17T12:21:02.534Z,6.47
2023-09-17T12:24:09.784Z,9.65
2023-09-17T12:27:36.863Z,6.40
2023-09-17T12:30:41.037Z,8.82
2023-09-17T12:33:44.634Z,7.80
2023-09-17T12:36:47.624Z,8.55
2023-09-17T12:39:51.179Z,7.53
2023-09-17T12:42:54.362Z,8.63
2023-09-17T12:45:57.465Z,10.23
2023-09-17T12:49:01.644Z,7.20
2023-09-17T12:52:07.545Z,6.97
2023-09-17T12:55:10.927Z,9.73
2023-09-17T12:58:14.311Z,9.32
2023-09-17T13:01:17.592Z,8.30
2023-09-17T13:04:20.773Z,7.85
2023-09-17T13:07:26.756Z,9.27
2023-09-17T13:10:29.862Z,6.90
2023-09-17T13:13:33.001Z,10.05
2023-09-17T13:16:35.705Z,9.50
2023-09-17T13:19:38.895Z,7.78
2023-09-17T13:22:42.057Z,8.05
2023-09-17T13:25:45.521Z,7.65
2023-09-17T13:28:53.670Z,7.57
2023-09-17T13:35:00.068Z,7.25
2023-09-17T13:38:03.715Z,8.65
2023-09-17T13:41:06.750Z,11.07
2023-09-17T13:44:10.032Z,13.27
2023-09-17T13:47:13.396Z,8.57
2023-09-17T13:50:16.981Z,7.05
2023-09-17T13:53:20.366Z,10.20
2023-09-17T13:56:23.754Z,7.35
2023-09-17T13:59:26.368Z,9.60
2023-09-17T14:02:29.561Z,8.02
2023-09-17T14:05:32.961Z,11.25
2023-09-17T14:08:36.534Z,7.43
2023-09-17T14:11:40.119Z,9.93
2023-09-17T14:14:43.172Z,10.73
2023-09-17T14:17:46.574Z,11.38
2023-09-17T14:20:49.177Z,9.15
2023-09-17T14:23:52.037Z,15.13
2023-09-17T14:26:55.021Z,9.13
2023-09-17T14:29:58.436Z,9.27
2023-09-17T14:33:02.062Z,9.60
2023-09-17T14:36:05.452Z,10.00
2023-09-17T14:39:10.738Z,12.90
2023-09-17T14:42:15.532Z,11.48
2023-09-17T14:45:18.527Z,12.55
2023-09-17T14:48:21.594Z,9.70
2023-09-17T14:51:24.701Z,18.67
2023-09-17T14:54:27.957Z,9.60
2023-09-17T14:57:34.852Z,10.35
2023-09-17T15:00:38.250Z,14.95
2023-09-17T15:03:41.418Z,18.17
2023-09-17T15:06:44.851Z,11.75
2023-09-17T15:09:49.101Z,13.70
2023-09-17T15:12:52.290Z,10.63
2023-09-17T15:15:55.224Z,13.35
2023-09-17T15:18:59.077Z,20.60
2023-09-17T15:22:02.184Z,12.63
2023-09-17T15:25:05.770Z,12.45
2023-09-17T15:28:08.872Z,12.80
2023-09-17T15:31:12.140Z,13.57
2023-09-17T15:34:15.833Z,15.30
2023-09-17T15:37:19.178Z,13.52
2023-09-17T15:40:22.159Z,14.20
2023-09-17T15:43:25.797Z,14.18
2023-09-17T15:46:29.164Z,14.05
2023-09-17T15:49:32.873Z,12.13
2023-09-17T15:52:36.685Z,14.35
2023-09-17T15:55:41.128Z,13.90
2023-09-17T15:58:44.480Z,11.93
2023-09-17T16:01:47.959Z,12.68
2023-09-17T16:04:51.716Z,15.13
2023-09-17T16:07:55.133Z,14.38
2023-09-17T16:10:59.005Z,13.05
2023-09-17T16:14:03.691Z,13.57
2023-09-17T16:17:07.218Z,17.92
2023-09-17T16:20:10.809Z,19.75
2023-09-17T16:23:17.159Z,14.07
2023-09-17T16:26:21.407Z,13.73
2023-09-17T16:29:25.064Z,11.80
2023-09-17T16:32:29.795Z,13.95
2023-09-17T16:35:33.400Z,15.45
2023-09-17T16:38:36.431Z,16.85
2023-09-17T16:41:39.807Z,12.98
2023-09-17T16:44:45.950Z,16.83
2023-09-17T16:47:49.499Z,11.48
2023-09-17T16:50:52.969Z,14.68
2023-09-17T16:53:57.487Z,12.57
2023-09-17T16:57:00.627Z,13.68
2023-09-17T17:00:05.089Z,12.88
2023-09-17T17:03:08.357Z,16.55
2023-09-17T17:06:12.378Z,16.25
2023-09-17T17:09:15.466Z,15.45
2023-09-17T17:12:19.152Z,12.75
2023-09-17T17:15:22.651Z,14.60
2023-09-17T17:18:26.889Z,15.68
2023-09-17T17:21:30.125Z,15.20
2023-09-17T17:24:34.762Z,12.70
2023-09-17T17:27:38.077Z,13.18
2023-09-17T17:30:42.266Z,15.90
2023-09-17T17:33:45.706Z,17.42
2023-09-17T17:36:49.303Z,19.45
2023-09-17T17:39:53.457Z,19.15
2023-09-17T17:42:57.203Z,16.75
2023-09-17T17:46:01.412Z,25.08
2023-09-17T17:49:05.167Z,28.77
2023-09-17T17:52:08.994Z,19.45
2023-09-17T17:55:12.666Z,18.90
2023-09-17T17:58:16.965Z,18.33
2023-09-17T18:01:20.730Z,19.80
2023-09-17T18:04:24.194Z,17.25
2023-09-17T18:07:28.577Z,18.55
2023-09-17T18:10:31.992Z,24.90
2023-09-17T18:13:35.077Z,18.77
2023-09-17T18:16:38.790Z,20.85
2023-09-17T18:19:42.053Z,20.08
2023-09-17T18:22:47.178Z,17.60
2023-09-17T18:25:50.956Z,21.58
2023-09-17T18:28:58.179Z,16.45
2023-09-17T18:32:02.346Z,17.27
2023-09-17T18:35:06.412Z,18.70
2023-09-17T18:38:09.500Z,18.10
2023-09-17T18:41:13.341Z,17.73
2023-09-17T18:44:20.867Z,21.60
2023-09-17T18:47:25.560Z,17.45
2023-09-17T18:50:29.307Z,17.98
2023-09-17T18:53:32.981Z,17.87
2023-09-17T18:56:36.144Z,15.80
2023-09-17T18:59:40.359Z,18.85
2023-09-17T19:02:44.985Z,14.65
2023-09-17T19:05:48.806Z,14.75
2023-09-17T19:08:52.406Z,16.70
2023-09-17T19:11:56.170Z,15.60
2023-09-17T19:15:00.495Z,18.67
2023-09-17T19:18:04.439Z,18.55
2023-09-17T19:21:13.180Z,16.42
2023-09-17T19:24:16.875Z,13.15
2023-09-17T19:27:20.005Z,14.90
2023-09-17T19:30:23.470Z,15.88
2023-09-17T19:33:26.852Z,14.40
2023-09-17T19:36:30.676Z,17.00
2023-09-17T19:39:34.055Z,16.23
2023-09-17T19:42:37.477Z,14.60
2023-09-17T19:45:44.908Z,13.88
2023-09-17T19:48:49.241Z,14.70
2023-09-17T19:51:52.928Z,15.38
2023-09-17T19:54:56.552Z,12.52
2023-09-17T19:57:59.789Z,14.90
2023-09-17T20:01:04.012Z,14.13
2023-09-17T20:04:07.603Z,15.65
2023-09-17T20:07:10.913Z,14.45
2023-09-17T20:10:17.734Z,16.75
2023-09-17T20:13:21.003Z,17.52
2023-09-17T20:16:25.273Z,16.67
2023-09-17T20:19:28.039Z,15.10
2023-09-17T20:22:31.424Z,14.00
2023-09-17T20:25:34.747Z,13.00
2023-09-17T20:28:38.842Z,15.57
2023-09-17T20:31:41.555Z,13.45
2023-09-17T20:34:44.637Z,13.82
2023-09-17T20:37:47.262Z,13.20
2023-09-17T20:40:50.640Z,12.52
2023-09-17T20:43:53.599Z,16.17
2023-09-17T20:46:56.869Z,14.55
2023-09-17T20:49:59.748Z,15.57
2023-09-17T20:53:03.373Z,16.08
2023-09-17T20:56:06.314Z,12.30
2023-09-17T20:59:09.239Z,17.85
2023-09-17T21:02:11.849Z,16.90
2023-09-17T21:05:16.387Z,12.95
2023-09-17T21:08:22.058Z,13.45
2023-09-17T21:11:25.177Z,17.83
2023-09-17T21:14:28.172Z,16.15
2023-09-17T21:17:31.756Z,13.50
2023-09-17T21:20:34.877Z,15.13
2023-09-17T21:23:39.461Z,12.93
2023-09-17T21:26:42.001Z,12.32
2023-09-17T21:29:45.151Z,14.75
2023-09-17T21:32:48.129Z,11.80
2023-09-17T21:35:51.245Z,12.90
2023-09-17T21:38:54.493Z,13.93
2023-09-17T21:41:58.477Z,13.82
2023-09-17T21:45:01.595Z,10.32
2023-09-17T21:48:05.058Z,17.42
2023-09-17T21:51:08.970Z,11.75
2023-09-17T21:54:12.155Z,10.00
2023-09-17T21:57:22.444Z,13.60
2023-09-17T22:00:25.379Z,17.45
2023-09-17T22:03:28.713Z,17.12
2023-09-17T22:06:31.782Z,13.75
2023-09-17T22:09:34.925Z,15.18
2023-09-17T22:12:37.925Z,14.07
2023-09-17T22:15:41.032Z,15.73
2023-09-17T22:18:43.723Z,13.90
2023-09-17T22:21:46.929Z,15.65
2023-09-17T22:24:49.571Z,13.43
2023-09-17T22:27:54.631Z,13.05
2023-09-17T22:30:59.367Z,18.83
2023-09-17T22:34:02.605Z,14.25
2023-09-17T22:37:05.450Z,12.75
2023-09-17T22:40:09.160Z,14.20
2023-09-17T22:43:12.182Z,14.55
2023-09-17T22:46:16.526Z,19.42
2023-09-17T22:49:19.609Z,15.20
2023-09-17T22:52:22.828Z,15.82
2023-09-17T22:55:25.568Z,17.50
2023-09-17T22:58:31.967Z,15.82
2023-09-17T23:01:35.738Z,15.13
2023-09-17T23:04:39.042Z,11.85
2023-09-17T23:07:41.658Z,14.18
2023-09-17T23:10:44.755Z,18.20
2023-09-17T23:13:48.238Z,15.20
2023-09-17T23:16:51.166Z,15.10
2023-09-17T23:19:54.757Z,16.35
2023-09-17T23:22:58.030Z,13.40
2023-09-17T23:26:02.598Z,14.43
2023-09-17T23:29:07.770Z,13.62
2023-09-17T23:32:15.253Z,15.43
2023-09-17T23:35:18.630Z,13.23
2023-09-17T23:38:21.361Z,13.35
2023-09-17T23:41:24.970Z,18.70
2023-09-17T23:44:27.975Z,14.15
2023-09-17T23:47:31.825Z,13.65
2023-09-17T23:50:35.425Z,13.38
2023-09-17T23:53:38.888Z,14.15
2023-09-17T23:56:42.206Z,12.70
2023-09-17T23:59:47.251Z,12.52
